메인 페이지
METAR-TAF:

METAR-TAF

공항 :

Winston Field

스나이더, 텍사스, 미국

위도: 32-41-36N, 경도: 100-57-01W, 고도: 741m

현재 날씨관측

예보는 32분 전, 10:35시(UTC)에 발표되었습니다.
무풍
온도 5°C
습도 70%
기압 1025 hPa
시정: 16.1km
맑음

METAR: KSNK 171035Z AUTO 00000KT 10SM CLR 05/00 A3026 RMK AO2 T00480000

시각: 05:07 (11:07 UTC)


TAF: 누락

4,000개 이상의 공항 관측 자료 및 예보 (METAR 및 TAF 보고).

지도상에서 검색 가능한 기상관측소가 노란 점과 빨간 점으로 표시되어 있습니다.

기상관측소 명을 보려면 표시 위로 마우스를 이동하세요.

날씨 관측과 예보를 보려면 클릭하세요.

지도 변경 : 확대하려면 엑스 표시가 있는 녹색 버튼, 축소하려면 빼기 표시가 있는 녹색 버튼, 다음 페이지의 지도를 보려면 녹색 화살표를 클릭하세요.


METAR-TAF: